• Join FlightAware (Why Join?)
  • Login
  • US Flag 
01:58AM EST


 

Airport Tracker/Info


-or-


 

Live Flight TrackerFlight Track Log ✈ SWA561 ✈ 25-Oct-2013 ✈ KABQ - KLAX

Flight Track Log - Related Links

Times and Time Zones

All times are in EDT time to prevent confusion due to time zone crossing. See the SWA561 flight status page for this flight to view local times or setup timezone preferences in your user account.

Time Position Orientation Groundspeed Altitude Reporting Facility
EDT Latitude Longitude Course Direction KTS MPH feet Rate Location/Type
10:31PM 35.0420 -106.5480 93° East 217 250 6,700  Level FlightAware
10:32PM 35.0540 -106.5020 72° East 253 291 7,600 1,380 Climbing FlightAware
10:32PM 35.0760 -106.4940 17° North 273 314 8,000 2,400 Climbing FlightAware
10:33PM 35.1130 -106.5390 315° West 274 315 10,200 2,340 Climbing FlightAware
10:34PM 35.1060 -106.6440 265° West 330 380 12,200 2,640 Climbing FlightAware
10:35PM 35.1050 -106.6960 269° West 328 377 14,100 3,360 Climbing FlightAware
10:35PM 35.1010 -106.7940 267° West 342 394 16,700 2,640 Climbing FlightAware
10:36PM 35.0950 -106.8990 266° West 369 425 18,700 2,160 Climbing FlightAware
10:37PM 35.0920 -106.9580 266° West 384 442 19,600 2,040 Climbing FlightAware
10:38PM 35.0870 -107.0560 266° West 404 465 21,200 2,220 Climbing FlightAware
10:38PM 35.0840 -107.1220 267° West 407 468 22,400 2,340 Climbing FlightAware
10:39PM 35.0760 -107.2730 266° West 413 475 25,000 1,620 Climbing FlightAware
10:40PM 35.0730 -107.3260 266° West 413 475 25,000 1,860 Level FlightAware
10:40PM 35.0670 -107.4610 267° West 425 489 27,500 2,460 Climbing FlightAware
10:41PM 35.0590 -107.6060 266° West 422 486 29,600 2,280 Climbing FlightAware
10:42PM 35.0530 -107.7090 266° West 406 467 31,500 1,920 Climbing FlightAware
10:43PM 35.0460 -107.8420 266° West 409 471 32,900 840 Climbing FlightAware
10:44PM 35.0400 -107.9540 266° West 410 472 33,100 120 Climbing FlightAware
10:44PM 35.0370 -108.0010 266° West 410 472 33,100  Level FlightAware
10:45PM 35.0330 -108.0710 266° West 410 472 33,100  Level FlightAware
10:45PM 35.0300 -108.1190 266° West 410 472 33,100  Level FlightAware
10:46PM 35.0230 -108.2380 266° West 410 472 33,100  Level FlightAware
10:47PM 35.0210 -108.2860 267° West 410 472 33,100  Level FlightAware
10:48PM 35.0140 -108.4030 266° West 410 472 33,100  Level FlightAware
10:49PM 35.0080 -108.4980 266° West 410 472 33,100  Level FlightAware
10:49PM 35.0040 -108.5680 266° West 410 472 33,100 1,740 Level FlightAware
10:50PM 34.9870 -108.8240 265° West 403 464 36,000 1,560 Climbing FlightAware
10:51PM 34.9800 -108.9180 265° West 403 464 36,000  Level FlightAware
10:52PM 34.9770 -108.9640 265° West 403 464 36,000  Level FlightAware
10:53PM 34.9670 -109.1340 266° West 405 466 36,000  Level FlightAware
10:53PM 34.9630 -109.1950 265° West 405 466 36,000  Level FlightAware
10:54PM 34.9540 -109.3280 265° West 406 467 36,000  Level FlightAware
10:54PM 34.9500 -109.3920 266° West 405 466 36,000  Level FlightAware
10:55PM 34.9410 -109.5240 265° West 403 464 36,000  Level FlightAware
10:56PM 34.9330 -109.6410 265° West 401 461 36,000  Level FlightAware
10:57PM 34.9280 -109.7150 265° West 399 459 36,000  Level FlightAware
10:57PM 34.9220 -109.8010 265° West 396 456 36,000  Level FlightAware
10:58PM 34.9130 -109.9210 265° West 393 452 36,000  Level FlightAware
10:59PM 34.9080 -109.9970 265° West 391 450 36,000  Level FlightAware
11:00PM 34.9020 -110.0740 265° West 389 448 36,000  Level FlightAware
11:00PM 34.8930 -110.1970 265° West 386 444 36,000  Level FlightAware
11:01PM 34.8800 -110.3160 262° West 386 444 36,000  Level FlightAware
11:02PM 34.8700 -110.3980 262° West 384 442 36,000  Level FlightAware
11:03PM 34.8580 -110.5050 262° West 385 443 36,000  Level FlightAware
11:03PM 34.8500 -110.5730 262° West 386 444 36,000  Level FlightAware
11:04PM 34.8350 -110.6950 262° West 388 447 36,000  Level FlightAware
11:05PM 34.8270 -110.7630 262° West 389 448 36,000  Level FlightAware
11:06PM 34.8140 -110.8670 261° West 388 447 36,000  Level FlightAware
11:06PM 34.8020 -110.9690 262° West 388 447 36,000  Level FlightAware
11:07PM 34.7940 -111.0310 261° West 388 447 36,000  Level FlightAware
11:08PM 34.7790 -111.1560 262° West 385 443 36,000  Level FlightAware
11:09PM 34.7680 -111.2410 261° West 382 440 36,000  Level FlightAware
11:09PM 34.7560 -111.3340 261° West 382 440 36,000  Level FlightAware
11:10PM 34.7480 -111.3960 261° West 381 438 36,000  Level FlightAware
11:11PM 34.7340 -111.5070 261° West 380 437 36,000  Level FlightAware
11:11PM 34.7260 -111.5740 262° West 381 438 36,000  Level FlightAware
11:12PM 34.7090 -111.7020 261° West 383 441 36,000  Level FlightAware
11:13PM 34.7020 -111.7570 261° West 384 442 36,000  Level FlightAware
11:13PM 34.6940 -111.8240 262° West 385 443 36,000  Level FlightAware
11:14PM 34.6780 -111.9420 261° West 386 444 36,000  Level FlightAware
11:15PM 34.6630 -112.0560 261° West 387 445 36,000  Level FlightAware
11:16PM 34.6490 -112.1600 261° West 389 448 36,000  Level FlightAware
11:16PM 34.6410 -112.2240 261° West 389 448 36,000  Level FlightAware
11:17PM 34.6270 -112.3280 261° West 388 447 36,000  Level FlightAware
11:18PM 34.6170 -112.3980 260° West 388 447 36,000  Level FlightAware
11:18PM 34.6080 -112.4650 261° West 389 448 36,000  Level FlightAware
11:19PM 34.5920 -112.5850 261° West 390 449 36,000  Level FlightAware
11:20PM 34.5830 -112.6460 260° West 391 450 36,000  Level FlightAware
11:20PM 34.5740 -112.7180 261° West 390 449 36,000  Level FlightAware
11:21PM 34.5550 -112.8530 260° West 390 449 36,000  Level FlightAware
11:22PM 34.5370 -112.9780 260° West 390 449 36,000  Level FlightAware
11:23PM 34.5200 -113.0980 260° West 389 448 36,000  Level FlightAware
11:24PM 34.5020 -113.2280 260° West 388 447 36,000  Level FlightAware
11:25PM 34.4890 -113.3180 260° West 387 445 36,000  Level FlightAware
11:25PM 34.4800 -113.3810 260° West 387 445 36,000  Level FlightAware
11:26PM 34.4710 -113.4460 260° West 386 444 36,000  Level FlightAware
11:26PM 34.4610 -113.5150 260° West 387 445 36,000  Level FlightAware
11:27PM 34.4410 -113.6510 260° West 387 445 36,000  Level FlightAware
11:28PM 34.4260 -113.7570 260° West 388 447 36,000  Level FlightAware
11:29PM 34.4120 -113.8550 260° West 388 447 36,000  Level FlightAware
11:29PM 34.4040 -113.9200 262° West 389 448 36,000  Level FlightAware
11:31PM 34.3870 -114.0550 261° West 386 444 36,000 -180 Level FlightAware
11:31PM 34.3820 -114.0970 262° West 385 443 35,800 -900 Descending FlightAware
11:31PM 34.3720 -114.1730 261° West 378 435 35,200 -1,080 Descending FlightAware
11:33PM 34.3550 -114.3030 261° West 376 433 34,100 -1,020 Descending FlightAware
11:33PM 34.3470 -114.3620 261° West 374 430 33,600 -1,020 Descending FlightAware
11:34PM 34.3340 -114.4650 261° West 371 427 32,800 -1,020 Descending FlightAware
11:35PM 34.3180 -114.5860 261° West 370 426 31,800 -1,020 Descending FlightAware
11:35PM 34.3080 -114.6590 261° West 369 425 31,200 -1,020 Descending FlightAware
11:36PM 34.3000 -114.7210 261° West 369 425 30,700 -1,020 Descending FlightAware
11:37PM 34.2850 -114.8320 261° West 364 419 29,800 -1,380 Descending FlightAware
11:37PM 34.2780 -114.8820 260° West 364 419 28,900 -1,920 Descending FlightAware
11:38PM 34.2630 -114.9950 261° West 376 433 27,300 -1,920 Descending FlightAware
11:39PM 34.2520 -115.0680 260° West 373 429 26,100 -2,040 Descending FlightAware
11:40PM 34.2370 -115.1810 261° West 369 425 24,300 -1,500 Descending FlightAware
11:40PM 34.2300 -115.2340 261° West 367 422 24,000 -240 Descending FlightAware
11:41PM 34.2140 -115.3430 260° West 364 419 24,000  Level FlightAware
11:42PM 34.2050 -115.4090 261° West 363 418 24,000  Level FlightAware
11:42PM 34.1920 -115.5020 260° West 362 417 24,000  Level FlightAware
11:43PM 34.1810 -115.5810 260° West 364 419 24,000  Level FlightAware
11:44PM 34.1670 -115.6800 260° West 367 422 24,000  Level FlightAware
11:45PM 34.1510 -115.7890 260° West 369 425 24,000  Level FlightAware
11:46PM 34.1330 -115.9160 260° West 370 426 24,000  Level FlightAware
11:46PM 34.1250 -115.9720 260° West 369 425 24,000  Level FlightAware
11:47PM 34.1090 -116.0840 260° West 365 420 24,000  Level FlightAware
11:48PM 34.0930 -116.1910 260° West 363 418 24,000  Level FlightAware
11:49PM 34.0790 -116.2850 260° West 364 419 24,000  Level FlightAware
11:49PM 34.0700 -116.3460 260° West 366 421 24,000  Level FlightAware
11:50PM 34.0710 -116.4600 271° West 342 394 24,000  Level FlightAware
11:51PM 34.0750 -116.5410 273° West 329 379 24,000 -240 Level FlightAware
11:52PM 34.0660 -116.6050 260° West 332 382 23,700 -840 Descending FlightAware
11:53PM 34.0420 -116.7120 255° West 327 376 22,700 -1,320 Descending FlightAware
11:53PM 34.0220 -116.8040 255° West 327 376 21,300 -1,800 Descending FlightAware
11:54PM 34.0050 -116.8800 255° West 328 377 19,900 -1,800 Descending FlightAware
11:55PM 33.9920 -116.9410 256° West 320 368 19,000 -1,560 Descending FlightAware
11:55PM 33.9790 -116.9970 254° West 314 361 18,200 -1,440 Descending FlightAware
11:56PM 33.9580 -117.0920 255° West 326 375 16,900 -1,200 Descending FlightAware
11:57PM 33.9470 -117.1970 263° West 309 356 15,900 -540 Descending FlightAware
11:58PM 33.9390 -117.2870 264° West 303 349 15,900 -420 Level FlightAware
11:59PM 33.9340 -117.3610 265° West 298 343 15,300 -1,020 Descending FlightAware
11:59PM 33.9410 -117.4000 282° West 294 338 14,700 -1,680 Descending FlightAware
12:00AM 33.9570 -117.4450 293° West 294 338 13,800 -1,860 Descending FlightAware
12:01AM 33.9900 -117.5370 293° West 298 343 12,000 -1,680 Descending FlightAware
12:02AM 34.0220 -117.6270 293° West 297 342 10,500 -1,560 Descending FlightAware
12:02AM 34.0260 -117.6560 279° West 301 346 10,000 -960 Descending FlightAware
12:02AM 34.0240 -117.6750 263° West 300 345 9,900 -960 Descending FlightAware
12:03AM 34.0150 -117.7710 264° West 286 329 8,900 -1,320 Descending FlightAware
12:04AM 34.0120 -117.8030 264° West 284 327 8,400 -1,440 Descending FlightAware
12:04AM 34.0080 -117.8380 262° West 281 323 7,900 -1,320 Descending FlightAware
12:04AM 34.0040 -117.8820 264° West 278 320 7,300 -1,320 Descending FlightAware
12:05AM 34.0000 -117.9190 263° West 275 316 6,800 -1,080 Descending FlightAware
12:05AM 33.9960 -117.9680 264° West 278 320 6,300 -1,020 Descending FlightAware
12:06AM 33.9920 -118.0050 263° West 273 314 5,900 -1,080 Descending FlightAware
12:06AM 33.9880 -118.0470 263° West 272 313 5,400 -1,020 Descending FlightAware
12:07AM 33.9830 -118.0960 263° West 266 306 4,900 -1,020 Descending FlightAware
12:07AM 33.9790 -118.1370 263° West 250 288 4,400 -1,260 Descending FlightAware
12:08AM 33.9760 -118.1630 262° West 239 275 3,900 -1,380 Descending FlightAware
12:08AM 33.9730 -118.1960 264° West 230 265 3,400 -1,260 Descending FlightAware
12:08AM 33.9690 -118.2300 262° West 214 246 2,800 -1,140 Descending FlightAware
12:09AM 33.9670 -118.2540 264° West 193 222 2,400 -1,020 Descending FlightAware
12:09AM 33.9650 -118.2750 263° West 182 209 2,100 -960 Descending FlightAware
12:09AM 33.9630 -118.2950 263° West 175 201 1,800 -1,020 Descending FlightAware
12:10AM 33.9600 -118.3210 262° West 165 190 1,300 -960 Descending FlightAware
12:10AM 33.9580 -118.3480 265° West 149 171 900 -780 Descending FlightAware
12:11AM 33.9550 -118.3740 262° West 141 162 500 -720 Descending FlightAware
12:12AM 33.9520 -118.4010 262° West 133 153 100 -720 Descending FlightAware
12:12AM 33.9510 -118.4210 267° West 135 155 -240 Descending FlightAware
12:20AM 33.9425 -118.4081 90° East  Level Estimated
12:21AM 33.9425 -118.4081 90° East  Level Estimated